createdAt,value
2019-05-02T00:02:11.435Z,10.51
2019-05-02T00:04:38.299Z,10.59
2019-05-02T00:07:07.280Z,10.24
2019-05-02T00:09:35.647Z,10.20
2019-05-02T00:12:06.796Z,10.39
2019-05-02T00:14:34.981Z,10.46
2019-05-02T00:17:02.193Z,10.41
2019-05-02T00:19:29.515Z,10.23
2019-05-02T00:21:56.809Z,10.45
2019-05-02T00:24:23.793Z,10.38
2019-05-02T00:26:50.757Z,10.59
2019-05-02T00:29:19.026Z,10.53
2019-05-02T00:31:48.810Z,10.54
2019-05-02T00:34:15.789Z,10.52
2019-05-02T00:36:43.064Z,10.49
2019-05-02T00:39:13.724Z,10.45
2019-05-02T00:41:40.442Z,10.42
2019-05-02T00:44:10.957Z,10.28
2019-05-02T00:46:37.176Z,10.21
2019-05-02T00:49:04.448Z,10.09
2019-05-02T00:51:31.598Z,10.20
2019-05-02T00:53:58.762Z,10.20
2019-05-02T00:56:25.541Z,10.23
2019-05-02T00:58:52.689Z,10.11
2019-05-02T01:01:29.628Z,10.05
2019-05-02T01:03:59.270Z,9.84
2019-05-02T01:06:26.486Z,9.89
2019-05-02T01:08:53.284Z,9.77
2019-05-02T01:11:20.250Z,9.78
2019-05-02T01:13:50.276Z,9.66
2019-05-02T01:16:19.120Z,9.72
2019-05-02T01:18:44.669Z,9.79
2019-05-02T01:21:11.467Z,9.60
2019-05-02T01:23:38.352Z,9.49
2019-05-02T01:26:07.116Z,9.39
2019-05-02T01:28:55.612Z,9.27
2019-05-02T01:31:36.591Z,9.34
2019-05-02T01:34:17.958Z,9.45
2019-05-02T01:36:49.673Z,9.43
2019-05-02T01:39:17.033Z,9.24
2019-05-02T01:41:43.905Z,9.14
2019-05-02T01:44:10.780Z,9.16
2019-05-02T01:46:37.628Z,8.93
2019-05-02T01:49:04.781Z,8.82
2019-05-02T01:51:31.513Z,9.13
2019-05-02T01:53:59.148Z,9.28
2019-05-02T01:56:28.443Z,9.32
2019-05-02T01:58:57.763Z,9.40
2019-05-02T02:01:23.863Z,9.42
2019-05-02T02:03:50.744Z,9.53
2019-05-02T02:06:17.622Z,9.31
2019-05-02T02:08:45.030Z,9.07
2019-05-02T02:11:11.765Z,9.12
2019-05-02T02:13:38.849Z,9.26
2019-05-02T02:16:06.168Z,9.37
2019-05-02T02:18:35.099Z,9.24
2019-05-02T02:21:14.972Z,9.02
2019-05-02T02:23:49.739Z,8.85
2019-05-02T02:26:18.756Z,8.91
2019-05-02T02:28:45.638Z,9.07
2019-05-02T02:31:12.628Z,8.96
2019-05-02T02:33:40.806Z,8.93
2019-05-02T02:36:09.040Z,8.78
2019-05-02T02:38:36.458Z,8.93
2019-05-02T02:41:06.392Z,9.13
2019-05-02T02:43:34.740Z,9.21
2019-05-02T02:46:01.705Z,9.29
2019-05-02T02:48:33.614Z,9.30
2019-05-02T02:50:58.976Z,9.26
2019-05-02T02:53:31.424Z,8.85
2019-05-02T02:56:05.987Z,8.65
2019-05-02T02:58:44.558Z,8.54
2019-05-02T03:01:02.133Z,8.75
2019-05-02T03:03:31.381Z,8.56
2019-05-02T03:06:05.242Z,8.31
2019-05-02T03:08:27.337Z,8.34
2019-05-02T03:10:54.408Z,8.51
2019-05-02T03:13:24.363Z,8.38
2019-05-02T03:16:00.463Z,8.09
2019-05-02T03:18:26.938Z,8.13
2019-05-02T03:20:52.658Z,8.34
2019-05-02T03:23:22.163Z,8.12
2019-05-02T03:25:51.171Z,8.12
2019-05-02T03:28:20.355Z,7.96
2019-05-02T03:30:46.404Z,7.98
2019-05-02T03:33:13.158Z,8.09
2019-05-02T03:35:44.130Z,8.09
2019-05-02T03:38:09.450Z,8.09
2019-05-02T03:40:38.871Z,8.08
2019-05-02T03:43:06.440Z,8.02
2019-05-02T03:45:39.804Z,8.14
2019-05-02T03:48:02.197Z,8.09
2019-05-02T03:50:32.746Z,7.73
2019-05-02T03:52:59.233Z,7.64
2019-05-02T03:55:30.896Z,7.54
2019-05-02T03:57:55.934Z,7.46
2019-05-02T04:00:24.416Z,7.61
2019-05-02T04:02:59.588Z,7.59
2019-05-02T04:05:20.385Z,7.63
2019-05-02T04:07:47.560Z,7.47
2019-05-02T04:10:46.273Z,7.40
2019-05-02T04:13:13.817Z,7.43
2019-05-02T04:15:42.820Z,7.54
2019-05-02T04:18:15.569Z,7.56
2019-05-02T04:20:43.537Z,7.67
2019-05-02T04:23:11.530Z,7.83
2019-05-02T04:25:39.034Z,7.82
2019-05-02T04:28:11.488Z,7.85
2019-05-02T04:30:34.469Z,7.48
2019-05-02T04:33:01.355Z,7.46
2019-05-02T04:35:28.716Z,7.45
2019-05-02T04:37:59.113Z,7.58
2019-05-02T04:40:28.189Z,7.73
2019-05-02T04:43:05.498Z,7.71
2019-05-02T04:45:29.384Z,7.67
2019-05-02T04:47:58.999Z,7.85
2019-05-02T04:50:25.315Z,7.86
2019-05-02T04:52:53.728Z,7.93
2019-05-02T04:55:26.214Z,8.08
2019-05-02T04:57:50.594Z,7.99
2019-05-02T05:00:20.957Z,7.98
2019-05-02T05:02:48.391Z,8.07
2019-05-02T05:05:25.019Z,7.89
2019-05-02T05:07:46.515Z,7.98
2019-05-02T05:10:14.476Z,8.10
2019-05-02T05:12:42.010Z,8.08
2019-05-02T05:15:15.144Z,8.08
2019-05-02T05:17:38.070Z,8.17
2019-05-02T05:20:12.210Z,8.14
2019-05-02T05:22:36.598Z,8.11
2019-05-02T05:25:21.360Z,8.19
2019-05-02T05:27:52.556Z,8.30
2019-05-02T05:30:18.754Z,8.39
2019-05-02T05:32:47.785Z,8.48
2019-05-02T05:35:15.154Z,8.34
2019-05-02T05:37:43.268Z,8.39
2019-05-02T05:40:11.238Z,8.31
2019-05-02T05:42:38.122Z,8.18
2019-05-02T05:45:09.693Z,8.24
2019-05-02T05:47:37.722Z,8.37
2019-05-02T05:50:05.676Z,8.40
2019-05-02T05:52:33.110Z,8.47
2019-05-02T05:55:01.107Z,8.72
2019-05-02T05:57:28.048Z,8.85
2019-05-02T05:59:58.425Z,8.84
2019-05-02T06:02:25.448Z,8.84
2019-05-02T06:04:55.343Z,8.97
2019-05-02T06:07:21.426Z,9.07
2019-05-02T06:09:48.155Z,9.11
2019-05-02T06:12:15.040Z,9.26
2019-05-02T06:14:41.890Z,9.29
2019-05-02T06:17:09.428Z,9.39
2019-05-02T06:19:37.151Z,9.57
2019-05-02T06:22:04.668Z,9.68
2019-05-02T06:24:33.834Z,9.78
2019-05-02T06:27:00.431Z,9.91
2019-05-02T06:29:27.321Z,10.06
2019-05-02T06:31:59.457Z,10.18
2019-05-02T06:34:26.229Z,10.28
2019-05-02T06:36:53.097Z,10.35
2019-05-02T06:39:19.879Z,10.45
2019-05-02T06:41:46.750Z,10.60
2019-05-02T06:44:18.475Z,10.75
2019-05-02T06:46:42.808Z,10.86
2019-05-02T06:49:09.694Z,10.95
2019-05-02T06:51:38.231Z,11.05
2019-05-02T06:54:05.545Z,11.19
2019-05-02T06:56:32.661Z,11.33
2019-05-02T06:59:01.755Z,11.46
2019-05-02T07:01:28.614Z,11.61
2019-05-02T07:03:55.595Z,11.80
2019-05-02T07:06:22.912Z,11.98
2019-05-02T07:08:50.184Z,12.14
2019-05-02T07:11:18.123Z,12.33
2019-05-02T07:13:44.909Z,12.42
2019-05-02T07:16:30.361Z,12.54
2019-05-02T07:18:49.403Z,12.71
2019-05-02T07:21:17.317Z,12.91
2019-05-02T07:23:48.627Z,13.08
2019-05-02T07:26:15.414Z,13.23
2019-05-02T07:28:45.758Z,13.37
2019-05-02T07:31:13.857Z,13.47
2019-05-02T07:33:40.870Z,13.63
2019-05-02T07:36:07.823Z,13.85
2019-05-02T07:38:34.726Z,13.99
2019-05-02T07:41:01.587Z,14.12
2019-05-02T07:43:28.560Z,14.21
2019-05-02T07:45:55.803Z,14.44
2019-05-02T07:48:22.569Z,14.65
2019-05-02T07:50:49.893Z,14.70
2019-05-02T07:53:17.227Z,14.77
2019-05-02T07:55:44.217Z,14.81
2019-05-02T07:58:11.027Z,14.88
2019-05-02T08:00:38.502Z,15.04
2019-05-02T08:03:05.589Z,15.31
2019-05-02T08:05:32.785Z,15.69
2019-05-02T08:07:59.919Z,15.98
2019-05-02T08:10:27.180Z,16.27
2019-05-02T08:12:54.560Z,16.56
2019-05-02T08:15:24.301Z,16.66
2019-05-02T08:17:53.807Z,16.70
2019-05-02T08:20:19.810Z,16.65
2019-05-02T08:22:48.924Z,16.91
2019-05-02T08:25:16.922Z,17.10
2019-05-02T08:27:51.771Z,17.24
2019-05-02T08:30:21.232Z,17.25
2019-05-02T08:32:48.401Z,17.10
2019-05-02T08:35:15.270Z,17.12
2019-05-02T08:37:43.106Z,17.32
2019-05-02T08:40:12.016Z,17.49
2019-05-02T08:42:39.068Z,17.74
2019-05-02T08:45:06.972Z,17.98
2019-05-02T08:47:33.899Z,18.13
2019-05-02T08:50:00.983Z,18.22
2019-05-02T08:52:27.883Z,18.30
2019-05-02T08:54:54.773Z,18.22
2019-05-02T08:57:23.855Z,18.29
2019-05-02T08:59:55.501Z,18.53
2019-05-02T09:02:21.202Z,18.68
2019-05-02T09:04:58.175Z,18.78
2019-05-02T09:07:18.288Z,18.84
2019-05-02T09:09:45.217Z,18.88
2019-05-02T09:12:15.080Z,19.02
2019-05-02T09:14:42.602Z,19.07
2019-05-02T09:17:15.847Z,19.06
2019-05-02T09:19:38.955Z,19.08
2019-05-02T09:22:07.516Z,18.99
2019-05-02T09:24:34.533Z,19.04
2019-05-02T09:27:02.479Z,19.16
2019-05-02T09:29:29.541Z,19.32
2019-05-02T09:31:56.445Z,19.33
2019-05-02T09:34:26.694Z,19.37
2019-05-02T09:36:53.040Z,19.52
2019-05-02T09:39:20.023Z,19.39
2019-05-02T09:41:46.840Z,19.28
2019-05-02T09:44:18.623Z,19.35
2019-05-02T09:46:47.348Z,19.53
2019-05-02T09:49:16.273Z,19.56
2019-05-02T09:51:45.596Z,19.66
2019-05-02T09:54:12.087Z,19.87
2019-05-02T09:56:39.043Z,19.95
2019-05-02T09:59:23.262Z,19.87
2019-05-02T10:01:36.926Z,20.09
2019-05-02T10:04:04.285Z,20.30
2019-05-02T10:06:33.703Z,20.43
2019-05-02T10:09:02.607Z,20.64
2019-05-02T10:11:29.708Z,20.72
2019-05-02T10:13:56.628Z,20.85
2019-05-02T10:16:27.343Z,20.80
2019-05-02T10:18:53.373Z,20.93
2019-05-02T10:21:22.656Z,20.91
2019-05-02T10:23:51.693Z,20.81
2019-05-02T10:26:20.269Z,20.71
2019-05-02T10:28:51.197Z,20.84
2019-05-02T10:31:19.366Z,21.04
2019-05-02T10:33:46.607Z,21.22
2019-05-02T10:36:19.688Z,21.24
2019-05-02T10:38:42.791Z,21.36
2019-05-02T10:41:11.877Z,21.60
2019-05-02T10:43:38.802Z,21.72
2019-05-02T10:46:07.478Z,21.85
2019-05-02T10:48:36.308Z,21.99
2019-05-02T10:51:25.608Z,21.85
2019-05-02T10:53:52.647Z,21.27
2019-05-02T10:56:19.787Z,20.74
2019-05-02T10:58:46.619Z,20.89
2019-05-02T11:01:16.110Z,21.15
2019-05-02T11:03:54.074Z,21.46
2019-05-02T11:06:22.251Z,21.90
2019-05-02T11:08:52.379Z,22.26
2019-05-02T11:11:21.740Z,22.19
2019-05-02T11:14:01.991Z,21.96
2019-05-02T11:16:34.149Z,21.97
2019-05-02T11:19:09.968Z,22.13
2019-05-02T11:21:37.154Z,22.46
2019-05-02T11:24:04.202Z,22.80
2019-05-02T11:26:32.418Z,23.07
2019-05-02T11:28:59.870Z,23.35
2019-05-02T11:31:26.822Z,22.88
2019-05-02T11:33:54.034Z,22.78
2019-05-02T11:36:22.323Z,22.23
2019-05-02T11:39:00.283Z,22.15
2019-05-02T11:41:19.780Z,22.31
2019-05-02T11:43:46.568Z,22.28
2019-05-02T11:46:13.714Z,22.09
2019-05-02T11:48:54.697Z,22.10
2019-05-02T11:51:14.842Z,21.73
2019-05-02T11:53:38.311Z,21.98
2019-05-02T11:56:07.451Z,22.01
2019-05-02T11:58:34.382Z,22.32
2019-05-02T12:01:05.055Z,22.67
2019-05-02T12:03:35.577Z,23.02
2019-05-02T12:05:59.234Z,23.40
2019-05-02T12:08:26.147Z,23.88
2019-05-02T12:10:53.027Z,23.93
2019-05-02T12:13:20.312Z,23.58
2019-05-02T12:15:47.387Z,23.24
2019-05-02T12:18:14.435Z,22.78
2019-05-02T12:20:42.510Z,22.26
2019-05-02T12:23:09.842Z,22.24
2019-05-02T12:25:36.747Z,23.38
2019-05-02T12:28:05.309Z,23.46
2019-05-02T12:30:34.130Z,23.17
2019-05-02T12:33:02.530Z,23.42
2019-05-02T12:35:32.106Z,23.57
2019-05-02T12:37:59.466Z,23.06
2019-05-02T12:40:26.717Z,23.19
2019-05-02T12:42:53.477Z,23.85
2019-05-02T12:45:21.923Z,24.62
2019-05-02T12:47:49.507Z,25.04
2019-05-02T12:50:16.555Z,25.08
2019-05-02T12:52:43.452Z,24.98
2019-05-02T12:55:12.789Z,25.15
2019-05-02T12:57:39.865Z,25.04
2019-05-02T13:00:08.060Z,24.91
2019-05-02T13:02:42.882Z,24.48
2019-05-02T13:05:10.312Z,24.08
2019-05-02T13:07:37.234Z,24.47
2019-05-02T13:10:06.209Z,25.09
2019-05-02T13:12:35.202Z,24.50
2019-05-02T13:15:04.899Z,23.78
2019-05-02T13:17:35.721Z,23.03
2019-05-02T13:20:03.816Z,22.63
2019-05-02T13:22:37.878Z,22.28
2019-05-02T13:25:10.317Z,21.87
2019-05-02T13:27:44.409Z,21.55
2019-05-02T13:30:12.399Z,21.42
2019-05-02T13:32:42.639Z,21.42
2019-05-02T13:35:12.861Z,21.38
2019-05-02T13:37:42.310Z,21.44
2019-05-02T13:40:12.204Z,21.64
2019-05-02T13:42:39.068Z,21.63
2019-05-02T13:45:08.583Z,21.55
2019-05-02T13:47:35.432Z,21.32
2019-05-02T13:50:04.894Z,21.14
2019-05-02T13:52:33.196Z,21.31
2019-05-02T13:55:01.807Z,21.55
2019-05-02T13:57:28.779Z,21.68
2019-05-02T13:59:55.762Z,21.93
2019-05-02T14:02:42.636Z,22.28
2019-05-02T14:05:13.827Z,22.33
2019-05-02T14:07:43.005Z,22.05
2019-05-02T14:10:25.287Z,21.57
2019-05-02T14:12:53.962Z,21.38
2019-05-02T14:15:22.484Z,21.19
2019-05-02T14:17:49.667Z,21.57
2019-05-02T14:20:18.499Z,21.52
2019-05-02T14:22:45.834Z,21.27
2019-05-02T14:25:13.095Z,21.09
2019-05-02T14:27:42.029Z,20.96
2019-05-02T14:30:09.634Z,20.92
2019-05-02T14:32:36.721Z,20.84
2019-05-02T14:35:07.855Z,20.55
2019-05-02T14:37:34.919Z,20.37
2019-05-02T14:40:08.418Z,20.27
2019-05-02T14:42:35.273Z,20.18
2019-05-02T14:45:13.311Z,20.00
2019-05-02T14:47:33.864Z,19.82
2019-05-02T14:50:02.208Z,19.71
2019-05-02T14:52:29.945Z,19.37
2019-05-02T14:54:56.717Z,19.04
2019-05-02T14:57:27.013Z,18.78
2019-05-02T14:59:59.062Z,18.54
2019-05-02T15:02:39.324Z,18.33
2019-05-02T15:05:05.684Z,18.23
2019-05-02T15:07:33.022Z,18.10
2019-05-02T15:10:05.046Z,17.93
2019-05-02T15:12:28.855Z,17.81
2019-05-02T15:14:58.657Z,17.71
2019-05-02T15:17:28.111Z,17.46
2019-05-02T15:19:53.244Z,17.35
2019-05-02T15:22:20.024Z,17.26
2019-05-02T15:24:46.767Z,17.16
2019-05-02T15:27:17.728Z,16.94
2019-05-02T15:29:42.619Z,16.61
2019-05-02T15:32:25.451Z,16.27
2019-05-02T15:35:02.496Z,16.10
2019-05-02T15:37:29.498Z,15.96
2019-05-02T15:42:25.882Z,16.00
2019-05-02T15:44:56.950Z,15.77
2019-05-02T15:47:22.509Z,15.65
2019-05-02T15:49:50.309Z,15.57
2019-05-02T15:52:24.268Z,15.39
2019-05-02T15:54:55.515Z,15.25
2019-05-02T15:57:22.077Z,15.32
2019-05-02T15:59:48.381Z,15.30
2019-05-02T16:02:21.897Z,15.34
2019-05-02T16:04:46.605Z,15.29
2019-05-02T16:07:14.030Z,15.24
2019-05-02T16:09:41.662Z,15.01
2019-05-02T16:12:08.790Z,14.76
2019-05-02T16:14:36.246Z,14.64
2019-05-02T16:17:03.912Z,14.52
2019-05-02T16:19:33.073Z,14.28
2019-05-02T16:22:06.676Z,14.31
2019-05-02T16:24:32.138Z,14.23
2019-05-02T16:26:58.999Z,14.31
2019-05-02T16:29:28.424Z,14.05
2019-05-02T16:31:59.819Z,13.87
2019-05-02T16:34:27.466Z,13.68
2019-05-02T16:36:57.592Z,13.55
2019-05-02T16:39:24.353Z,13.54
2019-05-02T16:41:52.953Z,13.57
2019-05-02T16:44:19.919Z,13.69
2019-05-02T16:46:47.119Z,13.73
2019-05-02T16:49:18.485Z,13.81
2019-05-02T16:51:43.292Z,13.83
2019-05-02T16:54:10.186Z,13.72
2019-05-02T16:56:42.363Z,13.66
2019-05-02T16:59:05.972Z,13.59
2019-05-02T17:01:32.794Z,13.45
2019-05-02T17:04:05.183Z,13.26
2019-05-02T17:06:29.817Z,13.26
2019-05-02T17:09:07.623Z,13.30
2019-05-02T17:11:36.421Z,13.32
2019-05-02T17:14:07.000Z,13.39
2019-05-02T17:16:32.420Z,13.45
2019-05-02T17:18:59.204Z,13.52
2019-05-02T17:21:26.764Z,13.57
2019-05-02T17:23:55.190Z,13.59
2019-05-02T17:26:22.795Z,13.60
2019-05-02T17:28:51.633Z,13.70
2019-05-02T17:31:20.645Z,13.76
2019-05-02T17:33:50.930Z,13.75
2019-05-02T17:36:21.522Z,13.60
2019-05-02T17:38:46.284Z,13.69
2019-05-02T17:41:13.349Z,13.71
2019-05-02T17:43:42.138Z,13.81
2019-05-02T17:46:12.672Z,13.89
2019-05-02T17:48:39.273Z,13.93
2019-05-02T17:51:08.455Z,13.84
2019-05-02T17:53:41.626Z,13.85
2019-05-02T17:56:04.427Z,13.87
2019-05-02T17:58:31.881Z,13.90
2019-05-02T18:01:02.580Z,13.95
2019-05-02T18:03:31.102Z,13.96
2019-05-02T18:05:58.674Z,14.00
2019-05-02T18:08:27.134Z,14.01
2019-05-02T18:10:58.094Z,13.94
2019-05-02T18:13:23.807Z,13.87
2019-05-02T18:15:53.570Z,13.87
2019-05-02T18:18:22.141Z,13.82
2019-05-02T18:20:49.128Z,13.78
2019-05-02T18:23:18.643Z,13.67
2019-05-02T18:25:45.263Z,13.65
2019-05-02T18:28:14.041Z,13.67
2019-05-02T18:30:41.741Z,13.69
2019-05-02T18:33:09.035Z,13.74
2019-05-02T18:35:37.496Z,13.77
2019-05-02T18:38:05.373Z,13.67
2019-05-02T18:40:32.436Z,13.68
2019-05-02T18:43:02.147Z,13.69
2019-05-02T18:45:29.159Z,13.60
2019-05-02T18:48:02.347Z,13.63
2019-05-02T18:50:36.979Z,13.56
2019-05-02T18:53:06.450Z,13.50
2019-05-02T18:55:33.954Z,13.47
2019-05-02T18:58:05.140Z,13.52
2019-05-02T19:00:36.109Z,13.43
2019-05-02T19:02:59.728Z,13.42
2019-05-02T19:05:26.700Z,13.38
2019-05-02T19:07:56.317Z,13.39
2019-05-02T19:10:23.180Z,13.36
2019-05-02T19:12:50.269Z,13.36
2019-05-02T19:15:18.360Z,13.28
2019-05-02T19:17:45.258Z,13.30
2019-05-02T19:20:29.297Z,13.31
2019-05-02T19:22:57.023Z,13.30
2019-05-02T19:25:24.483Z,13.28
2019-05-02T19:27:52.135Z,13.20
2019-05-02T19:30:26.407Z,13.15
2019-05-02T19:32:52.068Z,13.12
2019-05-02T19:35:19.272Z,13.05
2019-05-02T19:37:47.887Z,13.09
2019-05-02T19:40:26.896Z,13.05
2019-05-02T19:42:49.410Z,12.99
2019-05-02T19:45:16.982Z,13.02
2019-05-02T19:47:44.150Z,13.03
2019-05-02T19:50:36.710Z,12.98
2019-05-02T19:53:04.165Z,12.99
2019-05-02T19:55:29.772Z,12.95
2019-05-02T19:58:01.364Z,12.90
2019-05-02T20:00:27.091Z,12.90
2019-05-02T20:02:54.282Z,12.97
2019-05-02T20:05:25.434Z,12.99
2019-05-02T20:07:52.017Z,13.00
2019-05-02T20:10:19.398Z,12.99
2019-05-02T20:12:48.741Z,12.99
2019-05-02T20:15:25.407Z,12.99
2019-05-02T20:17:46.520Z,12.94
2019-05-02T20:20:42.292Z,12.89
2019-05-02T20:23:17.848Z,12.89
2019-05-02T20:25:39.173Z,12.92
2019-05-02T20:28:06.375Z,12.83
2019-05-02T20:30:33.522Z,12.73
2019-05-02T20:33:02.113Z,12.77
2019-05-02T20:35:29.341Z,12.82
2019-05-02T20:37:56.341Z,12.84
2019-05-02T20:40:28.160Z,12.87
2019-05-02T20:42:55.180Z,12.89
2019-05-02T20:45:22.764Z,12.89
2019-05-02T20:47:49.768Z,12.89
2019-05-02T20:50:17.068Z,12.91
2019-05-02T20:52:43.954Z,12.90
2019-05-02T20:55:12.262Z,12.90
2019-05-02T20:57:39.494Z,12.88
2019-05-02T21:00:23.391Z,12.89
2019-05-02T21:02:49.597Z,12.80
2019-05-02T21:05:21.879Z,12.80
2019-05-02T21:07:52.377Z,12.78
2019-05-02T21:10:21.836Z,12.73
2019-05-02T21:12:48.837Z,12.70
2019-05-02T21:15:18.211Z,12.73
2019-05-02T21:17:45.389Z,12.67
2019-05-02T21:20:12.585Z,12.68
2019-05-02T21:22:39.615Z,12.67
2019-05-02T21:25:07.021Z,12.67
2019-05-02T21:27:33.964Z,12.64
2019-05-02T21:30:01.065Z,12.63
2019-05-02T21:32:27.853Z,12.64
2019-05-02T21:34:54.810Z,12.65
2019-05-02T21:37:22.675Z,12.68
2019-05-02T21:39:49.697Z,12.59
2019-05-02T21:42:16.580Z,12.61
2019-05-02T21:44:43.936Z,12.61
2019-05-02T21:47:10.698Z,12.53
2019-05-02T21:49:43.094Z,12.51
2019-05-02T21:52:22.711Z,12.60
2019-05-02T21:54:52.256Z,12.57
2019-05-02T21:57:20.291Z,12.55
2019-05-02T21:59:47.300Z,12.54
2019-05-02T22:02:15.703Z,12.55
2019-05-02T22:04:42.922Z,12.53
2019-05-02T22:07:12.052Z,12.52
2019-05-02T22:09:38.558Z,12.52
2019-05-02T22:12:06.082Z,12.48
2019-05-02T22:14:33.092Z,12.50
2019-05-02T22:17:02.151Z,12.51
2019-05-02T22:19:29.002Z,12.55
2019-05-02T22:21:55.811Z,12.54
2019-05-02T22:24:22.731Z,12.55
2019-05-02T22:26:49.834Z,12.60
2019-05-02T22:29:16.682Z,12.46
2019-05-02T22:31:44.038Z,12.51
2019-05-02T22:34:12.819Z,12.55
2019-05-02T22:36:40.894Z,12.52
2019-05-02T22:39:22.728Z,12.49
2019-05-02T22:41:49.658Z,12.35
2019-05-02T22:44:16.478Z,12.34
2019-05-02T22:46:44.485Z,12.37
2019-05-02T22:49:14.650Z,12.35
2019-05-02T22:51:42.874Z,12.36
2019-05-02T22:54:23.294Z,12.33
2019-05-02T22:56:38.830Z,12.27
2019-05-02T22:59:06.001Z,12.24
2019-05-02T23:01:33.045Z,12.22
2019-05-02T23:04:01.857Z,12.20
2019-05-02T23:06:29.282Z,12.17
2019-05-02T23:08:56.171Z,12.17
2019-05-02T23:11:24.523Z,12.16
2019-05-02T23:13:51.796Z,12.28
2019-05-02T23:16:18.749Z,12.34
2019-05-02T23:18:45.551Z,12.33
2019-05-02T23:21:12.900Z,12.29
2019-05-02T23:23:41.719Z,12.36
2019-05-02T23:26:12.993Z,12.39
2019-05-02T23:28:42.365Z,12.37
2019-05-02T23:31:11.446Z,12.34
2019-05-02T23:33:56.868Z,12.34
2019-05-02T23:36:26.083Z,12.29
2019-05-02T23:38:52.970Z,12.27
2019-05-02T23:41:22.005Z,12.28
2019-05-02T23:43:49.007Z,12.28
2019-05-02T23:46:16.340Z,12.22
2019-05-02T23:48:43.512Z,12.17
2019-05-02T23:51:12.137Z,12.19
2019-05-02T23:53:39.294Z,12.16
2019-05-02T23:56:06.583Z,12.19
2019-05-02T23:58:33.344Z,12.20
